Time;durP1;ratioP1;P1;durP2;ratioP2;P2;SDS_P1;SDS_P2;PMS_P1;PMS_P2;Temp;Humidity;BMP_temperature;BMP_pressure;BME280_temperature;BME280_humidity;BME280_pressure;Samples;Min_cycle;Max_cycle;Signal;HPM_P1;HPM_P2
2021/08/17 00:00:18;;;;;;;10.37;4.30;;;14.80;99.90;;;;;;5014049;28;20656;-71
2021/08/17 00:02:43;;;;;;;11.33;5.07;;;14.80;99.90;;;;;;5014462;28;20179;-72
2021/08/17 00:05:10;;;;;;;5.40;3.97;;;14.80;99.90;;;;;;5014384;28;20172;-71
2021/08/17 00:07:35;;;;;;;10.47;4.93;;;14.60;99.90;;;;;;4996261;28;20269;-72
2021/08/17 00:10:06;;;;;;;7.23;4.33;;;14.40;99.90;;;;;;5012955;28;20454;-71
2021/08/17 00:12:32;;;;;;;9.03;4.00;;;14.40;99.90;;;;;;5013663;28;20176;-72
2021/08/17 00:14:58;;;;;;;7.53;4.20;;;14.50;99.90;;;;;;5013571;28;20458;-71
2021/08/17 00:17:23;;;;;;;9.83;4.03;;;14.60;99.90;;;;;;5013779;28;20891;-71
2021/08/17 00:19:49;;;;;;;8.20;4.33;;;14.70;99.90;;;;;;4995197;28;20182;-71
2021/08/17 00:22:14;;;;;;;5.80;3.33;;;14.70;99.90;;;;;;5013341;28;20182;-71
2021/08/17 00:24:40;;;;;;;12.33;4.90;;;14.70;99.90;;;;;;5014161;28;20209;-71
2021/08/17 00:27:06;;;;;;;6.17;4.47;;;14.70;99.90;;;;;;5013450;28;20179;-73
2021/08/17 00:29:31;;;;;;;8.53;4.13;;;14.70;99.90;;;;;;4995647;28;20172;-71
2021/08/17 00:31:57;;;;;;;7.87;4.00;;;14.70;99.90;;;;;;5013282;28;20188;-71
2021/08/17 00:34:23;;;;;;;7.47;4.63;;;14.70;99.90;;;;;;5013214;28;20290;-71
2021/08/17 00:36:49;;;;;;;7.83;4.30;;;14.70;99.90;;;;;;5017274;28;20210;-72
2021/08/17 00:39:16;;;;;;;7.13;4.23;;;14.70;99.90;;;;;;5016772;28;20168;-72
2021/08/17 00:41:42;;;;;;;9.50;4.87;;;14.70;99.90;;;;;;5016775;28;20488;-71
2021/08/17 00:44:37;;;;;;;5.07;4.00;;;14.70;99.90;;;;;;5016748;28;20402;-72
2021/08/17 00:47:03;;;;;;;6.57;4.80;;;14.50;99.90;;;;;;4937773;29;21030;-72
2021/08/17 00:49:29;;;;;;;5.87;4.10;;;14.40;99.90;;;;;;4927237;29;20432;-72
2021/08/17 00:51:58;;;;;;;10.73;5.53;;;14.40;99.90;;;;;;4937497;29;20469;-72
2021/08/17 00:54:23;;;;;;;9.83;4.67;;;14.40;99.90;;;;;;4937554;29;20812;-72
2021/08/17 00:56:49;;;;;;;11.37;5.33;;;14.40;99.90;;;;;;4937769;29;20429;-72
2021/08/17 00:59:15;;;;;;;10.30;5.40;;;14.40;99.90;;;;;;4940158;29;20174;-72
2021/08/17 01:01:41;;;;;;;8.67;4.60;;;14.40;99.90;;;;;;4937041;29;20562;-72
2021/08/17 01:04:11;;;;;;;9.93;5.40;;;14.30;99.90;;;;;;4936982;29;20470;-72
2021/08/17 01:06:38;;;;;;;7.90;4.70;;;14.30;99.90;;;;;;4936680;29;20477;-71
2021/08/17 01:09:05;;;;;;;9.40;5.17;;;14.30;99.90;;;;;;4937057;29;20454;-72
2021/08/17 01:11:30;;;;;;;8.33;4.67;;;14.30;99.90;;;;;;4936916;29;20552;-71
2021/08/17 01:13:56;;;;;;;8.47;5.50;;;14.30;99.90;;;;;;4936760;29;20473;-72
2021/08/17 01:16:22;;;;;;;10.90;4.93;;;14.30;99.90;;;;;;4936739;29;20643;-72
2021/08/17 01:18:49;;;;;;;11.43;5.80;;;14.20;99.90;;;;;;4936196;29;20193;-72
2021/08/17 01:21:16;;;;;;;11.40;6.50;;;14.20;99.90;;;;;;4936714;29;20560;-72
2021/08/17 01:23:42;;;;;;;11.47;5.70;;;14.10;99.90;;;;;;4985251;28;20429;-71
2021/08/17 01:26:07;;;;;;;14.47;6.40;;;13.90;99.90;;;;;;5015732;28;20442;-72
2021/08/17 01:28:33;;;;;;;12.32;7.30;;;13.80;99.90;;;;;;5014894;28;20438;-72
2021/08/17 01:31:02;;;;;;;12.50;6.90;;;13.80;99.90;;;;;;5021140;28;20191;-72
2021/08/17 01:33:28;;;;;;;12.50;6.70;;;13.80;99.90;;;;;;5006240;28;20209;-71
2021/08/17 01:35:54;;;;;;;11.27;7.10;;;13.80;99.90;;;;;;5018517;28;20418;-72
2021/08/17 01:38:19;;;;;;;9.67;6.20;;;13.80;99.90;;;;;;5016878;28;20445;-71
2021/08/17 01:40:45;;;;;;;13.73;7.30;;;13.90;99.90;;;;;;5015827;28;20195;-72
2021/08/17 01:43:10;;;;;;;14.40;7.87;;;13.80;99.90;;;;;;5015877;28;20584;-71
2021/08/17 01:45:36;;;;;;;16.20;8.43;;;13.80;99.90;;;;;;4997965;28;20226;-71
2021/08/17 01:48:02;;;;;;;14.77;6.90;;;13.80;99.90;;;;;;5014658;28;20183;-72
2021/08/17 01:50:27;;;;;;;13.63;8.87;;;13.90;99.90;;;;;;5015438;28;20195;-72
2021/08/17 01:52:53;;;;;;;13.70;9.10;;;13.90;99.90;;;;;;5015984;28;20274;-72
2021/08/17 01:55:19;;;;;;;17.13;8.80;;;13.90;99.90;;;;;;5015654;28;20572;-72
2021/08/17 01:57:44;;;;;;;16.53;9.00;;;14.00;99.90;;;;;;5016242;28;20203;-72
2021/08/17 02:00:12;;;;;;;18.30;9.93;;;14.00;99.90;;;;;;5015491;28;20206;-72
2021/08/17 02:02:38;;;;;;;17.85;10.68;;;14.10;99.90;;;;;;5015786;28;20402;-72
2021/08/17 02:05:04;;;;;;;20.60;12.20;;;14.20;99.90;;;;;;5015667;28;20258;-71
2021/08/17 02:07:29;;;;;;;17.10;10.33;;;14.10;99.90;;;;;;4997615;28;20441;-71
2021/08/17 02:09:55;;;;;;;22.77;12.73;;;14.20;99.90;;;;;;5011638;28;20467;-72
2021/08/17 02:12:21;;;;;;;22.47;12.20;;;14.10;99.90;;;;;;5004632;28;20330;-71
2021/08/17 02:14:46;;;;;;;19.97;12.87;;;14.10;99.90;;;;;;5015125;28;20207;-72
2021/08/17 02:17:12;;;;;;;23.43;13.43;;;14.20;99.90;;;;;;5015904;28;20172;-72
2021/08/17 02:19:37;;;;;;;18.70;11.97;;;14.20;99.90;;;;;;5015010;28;20172;-72
2021/08/17 02:22:03;;;;;;;20.33;13.27;;;14.30;99.90;;;;;;5015041;28;20176;-72
2021/08/17 02:24:28;;;;;;;24.43;13.90;;;14.30;99.90;;;;;;4997508;28;20183;-72
2021/08/17 02:26:54;;;;;;;21.97;12.80;;;14.20;99.90;;;;;;5014921;28;20191;-72
2021/08/17 02:29:20;;;;;;;21.70;14.27;;;14.30;99.90;;;;;;5015224;28;20221;-72
2021/08/17 02:31:46;;;;;;;22.63;13.40;;;14.30;99.90;;;;;;5015200;28;20556;-72
2021/08/17 02:34:11;;;;;;;26.30;15.47;;;14.30;99.90;;;;;;5015135;28;20450;-72
2021/08/17 02:36:37;;;;;;;28.00;14.97;;;14.40;99.90;;;;;;5015055;28;20178;-73
2021/08/17 02:39:03;;;;;;;24.97;14.93;;;14.30;99.90;;;;;;5016942;28;20198;-71
2021/08/17 02:41:28;;;;;;;27.87;15.30;;;14.40;99.90;;;;;;5016646;28;20298;-71
2021/08/17 02:43:54;;;;;;;28.73;16.30;;;14.40;99.90;;;;;;5014862;28;20484;-72
2021/08/17 02:46:20;;;;;;;26.30;17.20;;;14.50;99.90;;;;;;5015081;28;20306;-71
2021/08/17 02:48:45;;;;;;;27.47;16.00;;;14.40;99.90;;;;;;5015126;28;20206;-71
2021/08/17 02:51:11;;;;;;;27.70;15.37;;;14.50;99.90;;;;;;5016990;28;20547;-72
2021/08/17 02:53:36;;;;;;;30.10;15.77;;;14.60;99.90;;;;;;5015461;28;20702;-71
2021/08/17 02:56:02;;;;;;;25.80;16.60;;;14.60;99.90;;;;;;5015855;28;20203;-72
2021/08/17 02:58:27;;;;;;;33.20;18.90;;;14.50;99.90;;;;;;5016185;28;20159;-72
2021/08/17 03:00:53;;;;;;;33.70;18.67;;;14.50;99.90;;;;;;4997404;28;20200;-73
2021/08/17 03:03:18;;;;;;;37.03;19.37;;;14.50;99.90;;;;;;4996978;28;20219;-73
2021/08/17 03:05:44;;;;;;;30.10;18.60;;;14.60;99.90;;;;;;5014373;28;20269;-71
2021/08/17 03:08:09;;;;;;;29.70;18.67;;;14.60;99.90;;;;;;5014448;28;20511;-71
2021/08/17 03:10:37;;;;;;;30.77;19.10;;;14.60;99.90;;;;;;5014089;28;20385;-72
2021/08/17 03:13:04;;;;;;;35.07;19.57;;;14.40;99.90;;;;;;5014495;28;20183;-73
2021/08/17 03:15:33;;;;;;;36.53;19.67;;;14.50;99.90;;;;;;5014512;28;20418;-72
2021/08/17 03:18:03;;;;;;;32.77;18.33;;;14.60;99.90;;;;;;5014304;28;20919;-72
2021/08/17 03:20:30;;;;;;;37.13;21.13;;;14.60;99.90;;;;;;5014134;28;20426;-72
2021/08/17 03:22:56;;;;;;;34.80;20.40;;;14.70;99.90;;;;;;4996574;28;20488;-73
2021/08/17 03:25:22;;;;;;;33.47;19.77;;;14.60;99.90;;;;;;5014351;28;20411;-71
2021/08/17 03:27:49;;;;;;;37.55;24.00;;;14.70;99.90;;;;;;5013398;28;20430;-72
2021/08/17 03:30:17;;;;;;;35.33;21.13;;;14.70;99.90;;;;;;5014104;28;20318;-73
2021/08/17 03:32:43;;;;;;;31.23;20.80;;;14.70;99.90;;;;;;4996992;28;20429;-72
2021/08/17 03:35:10;;;;;;;34.80;20.07;;;14.70;99.90;;;;;;5013711;28;20658;-72
2021/08/17 03:37:38;;;;;;;32.80;19.73;;;14.40;99.90;;;;;;5013637;28;20494;-72
2021/08/17 03:40:08;;;;;;;40.90;21.87;;;14.30;99.90;;;;;;5013964;28;20430;-72
2021/08/17 03:42:33;;;;;;;37.83;20.90;;;14.20;99.90;;;;;;5013872;28;20446;-71
2021/08/17 03:44:59;;;;;;;33.53;19.77;;;14.30;99.90;;;;;;5014226;28;20469;-72
2021/08/17 03:47:25;;;;;;;37.13;19.57;;;14.40;99.90;;;;;;5014189;28;20187;-72
2021/08/17 03:49:51;;;;;;;33.67;19.10;;;14.50;99.90;;;;;;4995116;28;20727;-72
2021/08/17 03:52:16;;;;;;;33.27;18.50;;;14.50;99.90;;;;;;5014040;28;20458;-71
2021/08/17 03:54:42;;;;;;;32.07;20.13;;;14.50;99.90;;;;;;5013414;28;20738;-72
2021/08/17 03:57:07;;;;;;;34.30;18.80;;;14.40;99.90;;;;;;5008233;28;20206;-72
2021/08/17 03:59:33;;;;;;;34.93;19.43;;;14.50;99.90;;;;;;5005352;28;20180;-72
2021/08/17 04:01:58;;;;;;;32.90;20.43;;;14.50;99.90;;;;;;4985266;28;20196;-72
2021/08/17 04:04:24;;;;;;;35.10;19.57;;;14.50;99.90;;;;;;5008796;28;20171;-73
2021/08/17 04:06:49;;;;;;;34.33;20.40;;;14.60;99.90;;;;;;5009154;28;20541;-73
2021/08/17 04:09:15;;;;;;;35.47;20.70;;;14.70;99.90;;;;;;4998406;28;20972;-72
2021/08/17 04:11:40;;;;;;;34.93;19.00;;;14.70;99.90;;;;;;5015473;28;20215;-71
2021/08/17 04:14:06;;;;;;;29.47;18.83;;;14.70;99.90;;;;;;5008645;28;20199;-72
2021/08/17 04:16:32;;;;;;;35.58;21.67;;;14.70;99.90;;;;;;5010870;28;20441;-72
2021/08/17 04:18:57;;;;;;;33.10;19.70;;;14.70;99.90;;;;;;5003333;28;20211;-73
2021/08/17 04:21:23;;;;;;;36.80;20.37;;;14.70;99.90;;;;;;5013363;28;20629;-72
2021/08/17 04:23:48;;;;;;;31.27;18.87;;;14.70;99.90;;;;;;5017652;28;20246;-71
2021/08/17 04:26:14;;;;;;;35.23;19.33;;;14.70;99.90;;;;;;5018057;28;20687;-73
2021/08/17 04:28:39;;;;;;;29.13;16.63;;;14.70;99.90;;;;;;5017659;28;20247;-73
2021/08/17 04:31:05;;;;;;;27.67;17.40;;;14.70;99.90;;;;;;5013778;28;20278;-71
2021/08/17 04:34:04;;;;;;;27.83;17.30;;;14.70;99.90;;;;;;5020241;28;20560;-73
2021/08/17 04:36:31;;;;;;;30.70;18.83;;;14.70;99.90;;;;;;5002224;28;20203;-73
2021/08/17 04:38:57;;;;;;;30.40;16.30;;;14.70;99.90;;;;;;5004625;28;20489;-73
2021/08/17 04:41:25;;;;;;;34.13;17.53;;;14.60;99.90;;;;;;5007034;28;20550;-72
2021/08/17 04:43:51;;;;;;;33.43;19.67;;;14.70;99.90;;;;;;5017950;28;20209;-72
2021/08/17 04:46:16;;;;;;;30.00;19.40;;;14.60;99.90;;;;;;5017075;28;20441;-72
2021/08/17 04:48:42;;;;;;;34.23;20.53;;;14.70;99.90;;;;;;5016317;28;20215;-74
2021/08/17 04:51:09;;;;;;;34.38;19.08;;;14.70;99.90;;;;;;5016212;28;20510;-71
2021/08/17 04:53:36;;;;;;;32.50;20.60;;;14.70;99.90;;;;;;5016335;28;20711;-73
2021/08/17 04:56:02;;;;;;;33.03;19.50;;;14.70;99.90;;;;;;5015879;28;20549;-72
2021/08/17 04:58:27;;;;;;;30.80;19.63;;;14.70;99.90;;;;;;5016590;28;20485;-72
2021/08/17 05:00:53;;;;;;;36.43;21.67;;;14.70;99.90;;;;;;5017170;28;20196;-72
2021/08/17 05:03:23;;;;;;;37.70;21.03;;;14.60;99.90;;;;;;5017182;28;20180;-73
2021/08/17 05:05:48;;;;;;;34.13;20.90;;;14.70;99.90;;;;;;4998797;28;20183;-73
2021/08/17 05:08:14;;;;;;;37.20;21.00;;;14.60;99.90;;;;;;5016651;28;20411;-73
2021/08/17 05:10:39;;;;;;;43.07;22.97;;;14.70;99.90;;;;;;5017103;28;20191;-72
2021/08/17 05:13:05;;;;;;;38.80;22.70;;;14.60;99.90;;;;;;4998949;28;20178;-72
2021/08/17 05:15:31;;;;;;;34.83;20.53;;;14.60;99.90;;;;;;5016394;28;20209;-73
2021/08/17 05:17:57;;;;;;;35.60;21.40;;;14.70;99.90;;;;;;4999077;28;20172;-72
2021/08/17 05:20:23;;;;;;;39.67;23.77;;;14.70;99.90;;;;;;4999024;28;20431;-72
2021/08/17 05:22:51;;;;;;;37.27;21.70;;;14.80;99.90;;;;;;5016103;28;20490;-73
2021/08/17 05:25:17;;;;;;;31.70;21.53;;;14.80;99.90;;;;;;5005871;28;20508;-72
2021/08/17 05:27:43;;;;;;;29.27;18.73;;;14.80;99.90;;;;;;5016314;28;20767;-73
2021/08/17 05:30:09;;;;;;;36.23;21.50;;;14.90;99.90;;;;;;5015663;28;20434;-71
2021/08/17 05:32:35;;;;;;;32.50;19.20;;;14.90;99.90;;;;;;5016019;28;20387;-73
2021/08/17 05:35:01;;;;;;;32.30;21.60;;;15.00;99.90;;;;;;5016330;28;20489;-72
2021/08/17 05:37:26;;;;;;;32.20;20.50;;;15.00;99.90;;;;;;5016150;28;20270;-73
2021/08/17 05:39:52;;;;;;;29.87;20.20;;;15.00;99.90;;;;;;5016201;28;20183;-74
2021/08/17 05:42:18;;;;;;;28.07;19.37;;;15.10;99.90;;;;;;5016287;28;20249;-73
2021/08/17 05:44:45;;;;;;;31.60;19.53;;;15.10;99.90;;;;;;5017127;28;20168;-72
2021/08/17 05:47:12;;;;;;;30.90;19.17;;;15.00;99.90;;;;;;5015554;28;20278;-72
2021/08/17 05:49:38;;;;;;;35.87;21.10;;;15.00;99.90;;;;;;5016816;28;20418;-72
2021/08/17 05:52:10;;;;;;;29.47;18.87;;;15.10;99.90;;;;;;5016595;28;20501;-73
2021/08/17 05:54:36;;;;;;;33.17;19.43;;;15.10;99.90;;;;;;4998997;28;20519;-72
2021/08/17 05:57:05;;;;;;;34.10;19.13;;;15.00;99.90;;;;;;5016159;28;20427;-75
2021/08/17 05:59:34;;;;;;;28.83;18.57;;;15.00;99.90;;;;;;5017300;28;20402;-72
2021/08/17 06:02:03;;;;;;;33.43;20.53;;;15.10;99.90;;;;;;4999970;28;20411;-72
2021/08/17 06:04:32;;;;;;;30.53;19.07;;;15.10;99.90;;;;;;5016155;28;20410;-72
2021/08/17 06:06:58;;;;;;;32.00;19.87;;;15.20;99.90;;;;;;4999608;28;20446;-73
2021/08/17 06:09:24;;;;;;;36.57;21.63;;;15.10;99.90;;;;;;4998114;28;20427;-72
2021/08/17 06:11:54;;;;;;;31.50;20.33;;;15.10;99.90;;;;;;4998743;28;20442;-72
2021/08/17 06:14:19;;;;;;;34.17;21.37;;;15.20;99.90;;;;;;5017056;28;20538;-73
2021/08/17 06:16:46;;;;;;;33.53;21.65;;;15.20;99.90;;;;;;5016099;28;20419;-73
2021/08/17 06:19:12;;;;;;;35.57;20.63;;;15.10;99.90;;;;;;4998452;28;20203;-73
2021/08/17 06:21:38;;;;;;;34.63;21.13;;;15.20;99.90;;;;;;4999041;28;20943;-72
2021/08/17 06:24:05;;;;;;;35.23;21.10;;;15.20;99.90;;;;;;4999661;28;20183;-73
2021/08/17 06:26:32;;;;;;;33.67;20.40;;;15.20;99.90;;;;;;4998908;28;20422;-73
2021/08/17 06:29:03;;;;;;;34.00;21.50;;;15.20;99.90;;;;;;4999135;28;20505;-72
2021/08/17 06:31:29;;;;;;;34.57;21.17;;;15.20;99.90;;;;;;5016857;28;20500;-73
2021/08/17 06:33:56;;;;;;;36.70;22.50;;;15.20;99.90;;;;;;4998223;28;20998;-73
2021/08/17 06:36:24;;;;;;;32.83;20.87;;;15.20;99.90;;;;;;5016534;28;20246;-73
2021/08/17 06:38:51;;;;;;;32.27;21.17;;;15.30;99.90;;;;;;5016408;28;20829;-73
2021/08/17 06:41:17;;;;;;;31.60;20.60;;;15.20;99.90;;;;;;5015419;28;20462;-72
2021/08/17 06:43:44;;;;;;;30.97;20.90;;;15.40;99.90;;;;;;5016046;28;20484;-72
2021/08/17 06:46:13;;;;;;;36.70;23.20;;;15.40;99.90;;;;;;5015928;28;20222;-72
2021/08/17 06:48:42;;;;;;;35.80;21.80;;;15.30;99.90;;;;;;5015959;28;20411;-72
2021/08/17 06:51:10;;;;;;;33.37;21.10;;;15.40;99.90;;;;;;4998329;28;20947;-72
2021/08/17 06:53:37;;;;;;;37.13;20.97;;;15.40;99.90;;;;;;5002113;28;20470;-73
2021/08/17 06:56:03;;;;;;;38.43;21.60;;;15.50;99.90;;;;;;5005624;28;20445;-72
2021/08/17 06:58:34;;;;;;;33.57;21.53;;;15.50;99.90;;;;;;5028168;28;20423;-72
2021/08/17 07:01:02;;;;;;;36.10;23.10;;;15.40;99.90;;;;;;5027876;28;20462;-73
2021/08/17 07:03:28;;;;;;;33.77;20.23;;;15.40;99.90;;;;;;5011116;28;20486;-72
2021/08/17 07:05:54;;;;;;;37.30;23.67;;;15.40;99.90;;;;;;5010597;28;20423;-73
2021/08/17 07:08:20;;;;;;;36.57;22.00;;;15.50;99.90;;;;;;5027369;28;20644;-72
2021/08/17 07:10:46;;;;;;;37.33;21.70;;;15.60;99.90;;;;;;5027065;28;20446;-73
2021/08/17 07:13:13;;;;;;;34.27;21.27;;;15.50;99.90;;;;;;5024060;28;20215;-72
2021/08/17 07:15:40;;;;;;;37.50;22.90;;;15.50;99.90;;;;;;5001274;28;20431;-72
2021/08/17 07:18:06;;;;;;;33.13;19.93;;;15.50;99.90;;;;;;5018341;28;20417;-72
2021/08/17 07:20:35;;;;;;;32.67;19.67;;;15.60;99.90;;;;;;5017489;28;20440;-73
2021/08/17 07:23:04;;;;;;;33.77;22.00;;;15.60;99.90;;;;;;5017754;28;20489;-73
2021/08/17 07:25:43;;;;;;;36.03;20.57;;;15.80;99.90;;;;;;5000373;28;20441;-73
2021/08/17 07:28:11;;;;;;;29.03;19.87;;;15.80;99.90;;;;;;5000765;28;20425;-72
2021/08/17 07:30:41;;;;;;;32.40;19.67;;;15.90;99.90;;;;;;5000932;28;20438;-73
2021/08/17 07:33:12;;;;;;;36.30;21.80;;;16.00;99.90;;;;;;5001415;28;20431;-73
2021/08/17 07:35:38;;;;;;;33.33;20.80;;;15.90;99.90;;;;;;5021142;28;20491;-72
2021/08/17 07:38:07;;;;;;;34.03;20.27;;;15.90;99.90;;;;;;5020491;28;20434;-72
2021/08/17 07:40:41;;;;;;;31.03;19.40;;;15.90;99.90;;;;;;5020708;28;20442;-71
2021/08/17 07:43:13;;;;;;;35.90;19.97;;;15.90;99.90;;;;;;5019588;28;20476;-72
2021/08/17 07:45:39;;;;;;;34.40;19.63;;;16.00;99.90;;;;;;4999161;28;20429;-73
2021/08/17 07:48:07;;;;;;;36.20;19.33;;;16.00;99.90;;;;;;5001211;28;20422;-72
2021/08/17 07:50:38;;;;;;;32.13;20.77;;;16.00;99.90;;;;;;5063745;22;20229;-73
2021/08/17 07:53:06;;;;;;;31.83;19.70;;;15.90;99.90;;;;;;5039587;28;20827;-71
2021/08/17 07:55:31;;;;;;;36.87;20.73;;;16.10;99.90;;;;;;5058124;28;20412;-73
2021/08/17 07:57:57;;;;;;;28.60;17.90;;;16.20;99.90;;;;;;5057714;28;20433;-73
2021/08/17 08:00:22;;;;;;;31.93;19.67;;;16.40;99.90;;;;;;5057581;28;20190;-73
2021/08/17 08:02:48;;;;;;;33.67;19.47;;;16.50;99.90;;;;;;5057821;28;20170;-72
2021/08/17 08:05:13;;;;;;;30.00;18.03;;;16.40;99.90;;;;;;5057899;28;20497;-71
2021/08/17 08:07:39;;;;;;;31.43;20.33;;;16.60;99.90;;;;;;5057644;28;20551;-72
2021/08/17 08:10:05;;;;;;;31.50;17.93;;;16.60;99.90;;;;;;5056756;28;20705;-73
2021/08/17 08:12:31;;;;;;;31.03;17.53;;;16.70;99.90;;;;;;5057405;28;20253;-72
2021/08/17 08:14:56;;;;;;;30.27;18.10;;;16.60;99.90;;;;;;5057165;28;20456;-71
2021/08/17 08:17:22;;;;;;;30.40;17.63;;;16.70;99.90;;;;;;5057354;28;20224;-73
2021/08/17 08:19:47;;;;;;;33.80;18.00;;;16.70;99.90;;;;;;5056546;28;20193;-72
2021/08/17 08:22:13;;;;;;;28.90;18.07;;;16.70;99.90;;;;;;5057891;28;20170;-73
2021/08/17 08:24:38;;;;;;;35.10;19.20;;;16.80;99.90;;;;;;5056874;28;20541;-72
2021/08/17 08:27:05;;;;;;;28.93;17.93;;;16.80;99.90;;;;;;5039104;28;20285;-73
2021/08/17 08:29:30;;;;;;;26.27;17.70;;;16.80;99.90;;;;;;5056908;28;20166;-73
2021/08/17 08:31:56;;;;;;;28.83;17.30;;;16.80;99.90;;;;;;5057322;28;20451;-73
2021/08/17 08:34:21;;;;;;;28.33;18.27;;;16.80;99.90;;;;;;5056766;28;20647;-73
2021/08/17 08:36:49;;;;;;;28.63;18.20;;;16.90;99.90;;;;;;5039180;28;20174;-73
2021/08/17 08:39:14;;;;;;;25.63;16.63;;;16.90;99.90;;;;;;5056427;28;20249;-72
2021/08/17 08:41:40;;;;;;;25.93;17.40;;;16.90;99.90;;;;;;5056953;28;20578;-72
2021/08/17 08:44:06;;;;;;;37.60;19.30;;;16.90;99.90;;;;;;5056736;28;20174;-73
2021/08/17 08:46:34;;;;;;;29.00;17.70;;;17.00;99.90;;;;;;5056843;28;20420;-73
2021/08/17 08:49:02;;;;;;;26.27;17.63;;;17.00;99.90;;;;;;5056331;28;20177;-73
2021/08/17 08:51:28;;;;;;;28.27;17.00;;;17.00;99.90;;;;;;5056543;28;20436;-72
2021/08/17 08:53:53;;;;;;;34.13;19.93;;;17.00;99.90;;;;;;5056932;28;20962;-73
2021/08/17 08:56:19;;;;;;;30.40;18.07;;;17.10;99.90;;;;;;5056530;28;20261;-74
2021/08/17 08:58:44;;;;;;;28.50;18.70;;;17.00;99.90;;;;;;5056037;28;20176;-72
2021/08/17 09:01:11;;;;;;;30.63;18.77;;;17.20;99.90;;;;;;5056388;28;20205;-72
2021/08/17 09:03:43;;;;;;;24.63;16.80;;;17.10;99.90;;;;;;5056140;28;20182;-71
2021/08/17 09:06:24;;;;;;;26.30;18.80;;;17.30;99.90;;;;;;5056552;28;20405;-72
2021/08/17 09:09:14;;;;;;;31.60;18.57;;;17.20;99.90;;;;;;5056336;28;20411;-73
2021/08/17 09:11:42;;;;;;;32.33;21.20;;;17.20;99.90;;;;;;5055284;28;20501;-73
2021/08/17 09:14:19;;;;;;;26.83;17.87;;;17.20;99.90;;;;;;5057139;28;20456;-73
2021/08/17 09:16:46;;;;;;;28.33;17.80;;;17.20;99.90;;;;;;5038257;28;21015;-73
2021/08/17 09:19:27;;;;;;;24.73;16.00;;;17.40;99.90;;;;;;5056607;28;20420;-73
2021/08/17 09:21:56;;;;;;;26.80;16.27;;;17.50;99.90;;;;;;5056822;28;20814;-72
2021/08/17 09:24:25;;;;;;;24.13;15.50;;;17.40;99.90;;;;;;5056933;28;20425;-73
2021/08/17 09:26:53;;;;;;;24.40;15.87;;;17.40;99.90;;;;;;5056840;28;20409;-72
2021/08/17 09:29:25;;;;;;;21.27;14.90;;;17.50;99.90;;;;;;5057411;28;20408;-71
2021/08/17 09:31:53;;;;;;;21.80;16.10;;;17.70;99.90;;;;;;5056685;28;20530;-72
2021/08/17 09:34:19;;;;;;;21.13;15.00;;;17.70;99.90;;;;;;5058555;28;20444;-73
2021/08/17 09:36:46;;;;;;;21.17;13.43;;;17.70;99.90;;;;;;5059865;28;20413;-73
2021/08/17 09:39:25;;;;;;;22.60;14.33;;;17.70;99.90;;;;;;5055163;28;20419;-73
2021/08/17 09:41:51;;;;;;;21.50;15.13;;;17.50;99.90;;;;;;5054388;28;20439;-73
2021/08/17 09:44:19;;;;;;;22.17;14.00;;;17.50;99.90;;;;;;5074179;28;20428;-72
2021/08/17 09:46:44;;;;;;;23.50;14.90;;;17.40;99.90;;;;;;5055181;28;20182;-72
2021/08/17 09:49:26;;;;;;;20.07;13.33;;;17.50;99.90;;;;;;5070113;28;20427;-72
2021/08/17 09:51:53;;;;;;;22.50;15.30;;;17.50;99.90;;;;;;5054991;28;20938;-73
2021/08/17 09:54:21;;;;;;;24.83;14.80;;;17.50;99.90;;;;;;5037391;28;20787;-72
2021/08/17 09:57:01;;;;;;;21.40;13.73;;;17.60;99.90;;;;;;5037829;28;20412;-72
2021/08/17 09:59:28;;;;;;;21.40;11.93;;;17.70;99.90;;;;;;5037323;28;20916;-73
2021/08/17 10:01:55;;;;;;;21.37;12.37;;;17.50;99.90;;;;;;5055457;28;20456;-72
2021/08/17 10:04:24;;;;;;;17.07;11.83;;;17.70;99.90;;;;;;5055001;28;20880;-73
2021/08/17 10:06:51;;;;;;;19.70;12.47;;;17.70;99.90;;;;;;5055393;28;20431;-72
2021/08/17 10:09:17;;;;;;;18.10;11.57;;;17.70;99.90;;;;;;5036764;28;20775;-72
2021/08/17 10:11:44;;;;;;;19.20;11.60;;;17.60;99.90;;;;;;5055331;28;20436;-71
2021/08/17 10:14:11;;;;;;;19.00;11.80;;;17.50;99.90;;;;;;5036919;28;20460;-73
2021/08/17 10:16:37;;;;;;;23.10;12.30;;;17.60;99.90;;;;;;5055282;28;20822;-72
2021/08/17 10:19:04;;;;;;;16.83;12.70;;;17.60;99.90;;;;;;5055379;28;20448;-72
2021/08/17 10:21:31;;;;;;;20.83;11.97;;;17.60;99.90;;;;;;5055106;28;20209;-73
2021/08/17 10:23:56;;;;;;;17.08;12.90;;;17.80;99.90;;;;;;5054325;28;20410;-73
2021/08/17 10:26:40;;;;;;;17.90;12.50;;;17.80;99.90;;;;;;5036538;28;20174;-73
2021/08/17 10:29:25;;;;;;;15.43;12.40;;;17.80;99.90;;;;;;5054553;28;20597;-74
2021/08/17 10:31:51;;;;;;;19.80;14.33;;;17.80;99.90;;;;;;5056118;28;20421;-72
2021/08/17 10:34:16;;;;;;;17.77;14.30;;;17.80;99.90;;;;;;5055141;28;20457;-73
2021/08/17 10:36:44;;;;;;;17.50;12.30;;;17.70;99.90;;;;;;5055365;28;20178;-73
2021/08/17 10:39:18;;;;;;;21.60;14.40;;;17.80;99.90;;;;;;5055711;28;20196;-73
2021/08/17 10:41:53;;;;;;;20.60;13.17;;;17.80;99.90;;;;;;5054572;28;20424;-72
2021/08/17 10:44:22;;;;;;;22.40;13.80;;;17.90;99.90;;;;;;5035815;28;20469;-73
2021/08/17 10:46:57;;;;;;;18.47;12.50;;;17.90;99.90;;;;;;5054146;28;20401;-73
2021/08/17 10:49:35;;;;;;;20.13;12.87;;;17.90;99.90;;;;;;5054490;28;20817;-73
2021/08/17 10:52:04;;;;;;;19.50;14.13;;;18.00;99.90;;;;;;5055685;28;20841;-73
2021/08/17 10:54:31;;;;;;;19.30;13.83;;;18.00;99.90;;;;;;5054257;28;20461;-72
2021/08/17 10:57:14;;;;;;;21.50;14.20;;;18.00;99.90;;;;;;5055068;28;20421;-72
2021/08/17 10:59:43;;;;;;;15.20;12.23;;;18.10;99.90;;;;;;5055032;28;20431;-74
2021/08/17 11:02:09;;;;;;;26.67;16.17;;;18.20;99.90;;;;;;5054536;28;20440;-73
2021/08/17 11:04:46;;;;;;;21.50;13.80;;;18.10;99.90;;;;;;5053962;28;20487;-73
2021/08/17 11:07:32;;;;;;;18.98;13.88;;;18.20;99.90;;;;;;5052431;28;20422;-73
2021/08/17 11:10:05;;;;;;;20.77;13.83;;;18.30;99.90;;;;;;5054362;28;20256;-73
2021/08/17 11:12:39;;;;;;;22.00;13.17;;;18.50;99.90;;;;;;5054207;28;20432;-73
2021/08/17 11:15:14;;;;;;;14.23;12.20;;;18.20;99.90;;;;;;5034732;28;20458;-73
2021/08/17 11:17:40;;;;;;;20.43;13.10;;;18.20;99.90;;;;;;5054324;28;20616;-73
2021/08/17 11:20:06;;;;;;;17.83;12.97;;;18.20;99.90;;;;;;5054016;28;20424;-74
2021/08/17 11:22:36;;;;;;;15.47;11.77;;;18.30;99.90;;;;;;5054873;28;20401;-72
2021/08/17 11:25:07;;;;;;;15.03;10.83;;;18.30;99.90;;;;;;5053859;28;20413;-74
2021/08/17 11:27:39;;;;;;;18.23;12.83;;;18.20;99.90;;;;;;5053971;28;21047;-73
2021/08/17 11:30:13;;;;;;;14.43;10.73;;;18.10;99.90;;;;;;5053679;28;20432;-74
2021/08/17 11:33:07;;;;;;;17.87;12.67;;;18.20;99.90;;;;;;5052538;28;21131;-73
2021/08/17 11:35:36;;;;;;;19.07;13.00;;;18.10;99.90;;;;;;5012077;28;20429;-73
2021/08/17 11:38:01;;;;;;;19.90;13.30;;;18.10;99.90;;;;;;4993646;28;20431;-73
2021/08/17 11:40:27;;;;;;;16.83;12.33;;;18.10;99.90;;;;;;4978934;28;20434;-73
2021/08/17 11:42:57;;;;;;;19.17;12.20;;;18.10;99.90;;;;;;5011902;28;20242;-73
2021/08/17 11:45:27;;;;;;;17.50;11.63;;;18.00;99.90;;;;;;5011839;28;20241;-73
2021/08/17 11:47:53;;;;;;;16.00;10.67;;;18.10;99.90;;;;;;5011512;28;20445;-72
2021/08/17 11:50:22;;;;;;;13.97;10.30;;;18.10;99.90;;;;;;5011589;28;21206;-72
2021/08/17 11:52:49;;;;;;;14.63;10.30;;;18.10;99.90;;;;;;4976906;28;20419;-72
2021/08/17 11:55:21;;;;;;;18.23;11.10;;;18.10;99.90;;;;;;4992464;28;20474;-72
2021/08/17 11:57:51;;;;;;;13.17;9.23;;;18.30;99.90;;;;;;4992018;28;20518;-73
2021/08/17 12:00:27;;;;;;;12.17;8.80;;;18.40;99.90;;;;;;5010927;28;20449;-73
2021/08/17 12:02:56;;;;;;;12.53;8.97;;;18.20;99.90;;;;;;5011742;28;20425;-73
2021/08/17 12:05:24;;;;;;;13.77;10.13;;;18.00;99.90;;;;;;5011769;28;20760;-72
2021/08/17 12:07:52;;;;;;;12.90;9.57;;;18.10;99.90;;;;;;5011625;28;20512;-72
2021/08/17 12:10:21;;;;;;;14.70;9.33;;;18.00;99.90;;;;;;5011176;28;20450;-72
2021/08/17 12:13:11;;;;;;;11.80;9.07;;;18.20;99.90;;;;;;5046875;28;20511;-71
2021/08/17 12:15:44;;;;;;;10.53;7.63;;;18.20;99.90;;;;;;5054294;28;20421;-73
2021/08/17 12:18:17;;;;;;;10.20;7.90;;;18.10;99.90;;;;;;5053420;28;20404;-72
2021/08/17 12:20:48;;;;;;;16.40;8.10;;;18.00;99.90;;;;;;5035596;28;20460;-72
2021/08/17 12:23:20;;;;;;;11.10;8.20;;;17.90;99.90;;;;;;5053137;28;20405;-72
2021/08/17 12:25:46;;;;;;;10.27;8.73;;;17.90;99.90;;;;;;5053607;28;20411;-72
2021/08/17 12:28:30;;;;;;;10.97;7.70;;;17.90;99.90;;;;;;5053866;28;20436;-72
2021/08/17 12:31:16;;;;;;;9.47;7.80;;;17.90;99.90;;;;;;5054550;28;20421;-72
2021/08/17 12:33:53;;;;;;;10.63;8.30;;;17.90;99.90;;;;;;5056829;28;20448;-72